Time;durP1;ratioP1;P1;durP2;ratioP2;P2;SDS_P1;SDS_P2;PMS_P1;PMS_P2;Temp;Humidity;BMP_temperature;BMP_pressure;BME280_temperature;BME280_humidity;BME280_pressure;Samples;Min_cycle;Max_cycle;Signal;HPM_P1;HPM_P2
2023/03/17 00:01:57;;;;;;;;;;;;;;;-142.75;100.00;77011.25;5054651;28;19913;-67
2023/03/17 00:04:23;;;;;;;;;;;;;;;-142.75;100.00;77005.34;5054547;28;20048;-68
2023/03/17 00:06:48;;;;;;;;;;;;;;;-142.75;100.00;77001.41;5070084;28;19920;-68
2023/03/17 00:09:14;;;;;;;;;;;;;;;-142.75;100.00;76987.63;5054506;28;19917;-67
2023/03/17 00:11:40;;;;;;;;;;;;;;;-142.75;100.00;77003.38;5053687;28;19919;-65
2023/03/17 00:14:05;;;;;;;;;;;;;;;-142.75;100.00;76999.44;5053701;28;19916;-66
2023/03/17 00:16:33;;;;;;;;;;;;;;;-142.75;100.00;76987.63;5069823;28;19917;-67
2023/03/17 00:18:58;;;;;;;;;;;;;;;-142.75;100.00;77005.34;5054310;28;20153;-66
2023/03/17 00:21:28;;;;;;;;;;;;;;;-142.75;100.00;76995.50;5069688;28;19916;-67
2023/03/17 00:23:55;;;;;;;;;;;;;;;-142.75;100.00;76991.56;5054185;28;19919;-67
2023/03/17 00:26:20;;;;;;;;;;;;;;;-142.75;100.00;76999.44;5054240;28;19912;-67
2023/03/17 00:28:45;;;;;;;;;;;;;;;-142.75;100.00;76999.44;5054125;28;19912;-67
2023/03/17 00:31:29;;;;;;;;;;;;;;;-142.75;100.00;77019.13;5054099;28;19999;-67
2023/03/17 00:33:55;;;;;;;;;;;;;;;-142.75;100.00;77030.94;5054018;28;19986;-67
2023/03/17 00:36:24;;;;;;;;;;;;;;;-142.75;100.00;77030.94;5054008;28;20398;-67
2023/03/17 00:38:51;;;;;;;;;;;;;;;-142.75;100.00;77030.94;5069285;28;19916;-67
2023/03/17 00:41:17;;;;;;;;;;;;;;;-142.75;100.00;77030.94;5053857;28;19948;-67
2023/03/17 00:43:42;;;;;;;;;;;;;;;-142.75;100.00;77030.94;5053829;28;19964;-67
2023/03/17 00:46:10;;;;;;;;;;;;;;;-142.75;100.00;77034.88;5053938;28;19971;-67
2023/03/17 00:48:36;;;;;;;;;;;;;;;-142.75;100.00;77030.94;5053608;28;19917;-67
2023/03/17 00:51:01;;;;;;;;;;;;;;;-142.75;100.00;77038.81;5053669;28;19913;-67
2023/03/17 00:53:26;;;;;;;;;;;;;;;-142.75;100.00;77032.91;5068936;28;19919;-66
2023/03/17 00:55:51;;;;;;;;;;;;;;;-142.75;100.00;77036.84;5053601;28;19917;-67
2023/03/17 00:58:22;;;;;;;;;;;;;;;-142.75;100.00;77046.69;5053554;28;20003;-67
2023/03/17 01:00:48;;;;;;;;;;;;;;;-142.75;100.00;77046.69;5053518;28;20004;-67
2023/03/17 01:03:14;;;;;;;;;;;;;;;-142.75;100.00;77054.56;5053442;28;19952;-67
2023/03/17 01:05:40;;;;;;;;;;;;;;;-142.75;100.00;77058.50;5053431;28;19919;-67
2023/03/17 01:08:05;;;;;;;;;;;;;;;-142.75;100.00;77054.56;5053301;28;20095;-67
2023/03/17 01:10:31;;;;;;;;;;;;;;;-142.75;100.00;77044.72;5068635;28;19913;-67
2023/03/17 01:12:57;;;;;;;;;;;;;;;-142.75;100.00;77046.69;5053276;28;19913;-67
2023/03/17 01:15:24;;;;;;;;;;;;;;;-142.75;100.00;77042.75;5053166;28;19944;-67
2023/03/17 01:17:50;;;;;;;;;;;;;;;-142.75;100.00;77042.75;5053235;28;19913;-66
2023/03/17 01:20:23;;;;;;;;;;;;;;;-142.75;100.00;77030.94;5053122;28;19954;-67
2023/03/17 01:22:49;;;;;;;;;;;;;;;-142.75;100.00;77027.00;5067765;28;20327;-68
2023/03/17 01:25:15;;;;;;;;;;;;;;;-142.75;100.00;77030.94;5053086;28;19920;-67
2023/03/17 01:27:40;;;;;;;;;;;;;;;-142.75;100.00;77015.19;5068357;28;19935;-66
2023/03/17 01:30:08;;;;;;;;;;;;;;;-142.75;100.00;77021.09;5068308;28;19913;-67
2023/03/17 01:32:33;;;;;;;;;;;;;;;-142.75;100.00;77023.06;5052863;28;19912;-63
2023/03/17 01:34:58;;;;;;;;;;;;;;;-142.75;100.00;77019.13;5052881;28;20449;-67
2023/03/17 01:37:23;;;;;;;;;;;;;;;-142.75;100.00;77007.31;5052769;28;19917;-68
2023/03/17 01:39:49;;;;;;;;;;;;;;;-142.75;100.00;77021.09;5068115;28;19921;-66
2023/03/17 01:42:16;;;;;;;;;;;;;;;-142.75;100.00;77017.16;5052615;28;19913;-67
2023/03/17 01:45:01;;;;;;;;;;;;;;;-142.75;100.00;77007.31;5052804;28;20005;-66
2023/03/17 01:47:30;;;;;;;;;;;;;;;-142.75;100.00;77003.38;5052528;28;19952;-68
2023/03/17 01:49:59;;;;;;;;;;;;;;;-142.75;100.00;77015.19;5052620;28;19920;-69
2023/03/17 01:52:25;;;;;;;;;;;;;;;-142.75;100.00;77011.25;5052484;28;19917;-68
2023/03/17 01:55:05;;;;;;;;;;;;;;;-142.75;100.00;77001.41;5053215;28;19933;-66
2023/03/17 01:57:38;;;;;;;;;;;;;;;-142.75;100.00;77007.31;5067947;28;19971;-67
2023/03/17 02:00:06;;;;;;;;;;;;;;;-142.75;100.00;77007.31;5052319;28;19913;-67
2023/03/17 02:02:34;;;;;;;;;;;;;;;-142.75;100.00;77011.25;5052324;28;20030;-67
2023/03/17 02:05:00;;;;;;;;;;;;;;;-142.75;100.00;77013.22;5067786;28;19939;-67
2023/03/17 02:07:26;;;;;;;;;;;;;;;-142.75;100.00;77011.25;5052406;28;20410;-66
2023/03/17 02:09:52;;;;;;;;;;;;;;;-142.75;100.00;77015.19;5067650;28;19963;-68
2023/03/17 02:12:18;;;;;;;;;;;;;;;-142.75;100.00;77027.00;5067410;28;19919;-68
2023/03/17 02:14:43;;;;;;;;;;;;;;;-142.75;100.00;77028.97;5067757;28;20285;-67
2023/03/17 02:17:08;;;;;;;;;;;;;;;-142.75;100.00;77023.06;5052049;28;20408;-67
2023/03/17 02:19:34;;;;;;;;;;;;;;;-142.75;100.00;77027.00;5067556;28;19916;-67
2023/03/17 02:22:00;;;;;;;;;;;;;;;-142.75;100.00;77021.09;5043217;28;20422;-67
2023/03/17 02:24:25;;;;;;;;;;;;;;;-142.75;100.00;77028.97;5030770;28;19913;-66
2023/03/17 02:26:52;;;;;;;;;;;;;;;-142.75;100.00;77019.13;5030883;28;20300;-67
2023/03/17 02:29:19;;;;;;;;;;;;;;;-142.75;100.00;77007.31;5032094;28;19913;-67
2023/03/17 02:31:44;;;;;;;;;;;;;;;-142.75;100.00;77011.25;5032051;28;20500;-67
2023/03/17 02:34:12;;;;;;;;;;;;;;;-142.75;100.00;77015.19;5031681;28;19913;-66
2023/03/17 02:36:37;;;;;;;;;;;;;;;-142.75;100.00;77007.31;5032028;28;19917;-67
2023/03/17 02:39:03;;;;;;;;;;;;;;;-142.75;100.00;77003.38;5031958;28;19936;-67
2023/03/17 02:41:28;;;;;;;;;;;;;;;-142.75;100.00;76991.56;5031932;28;19913;-64
2023/03/17 02:43:54;;;;;;;;;;;;;;;-142.75;100.00;77003.38;5031903;28;19917;-66
2023/03/17 02:46:19;;;;;;;;;;;;;;;-142.75;100.00;77011.25;5032007;28;20456;-67
2023/03/17 02:48:45;;;;;;;;;;;;;;;-142.75;100.00;77001.41;5031845;28;19971;-66
2023/03/17 02:51:11;;;;;;;;;;;;;;;-142.75;100.00;77003.38;5030622;28;19948;-66
2023/03/17 02:53:36;;;;;;;;;;;;;;;-142.75;100.00;77009.28;5031744;28;19924;-67
2023/03/17 02:56:01;;;;;;;;;;;;;;;-142.75;100.00;77001.41;5031810;28;19948;-69
2023/03/17 02:58:27;;;;;;;;;;;;;;;-142.75;100.00;77003.38;5030531;28;19913;-67
2023/03/17 03:00:52;;;;;;;;;;;;;;;-142.75;100.00;77003.38;5031790;28;20408;-68
2023/03/17 03:03:17;;;;;;;;;;;;;;;-142.75;100.00;77007.31;5031709;28;20054;-67
2023/03/17 03:05:43;;;;;;;;;;;;;;;-142.75;100.00;77003.38;5030541;28;19920;-66
2023/03/17 03:08:08;;;;;;;;;;;;;;;-142.75;100.00;77003.38;5030349;28;20262;-67
2023/03/17 03:10:33;;;;;;;;;;;;;;;-142.75;100.00;77003.38;5031646;28;19913;-66
2023/03/17 03:12:58;;;;;;;;;;;;;;;-142.75;100.00;77001.41;5031570;28;20004;-64
2023/03/17 03:15:24;;;;;;;;;;;;;;;-142.75;100.00;77015.19;5031548;28;19917;-65
2023/03/17 03:17:49;;;;;;;;;;;;;;;-142.75;100.00;76999.44;5031606;28;19913;-67
2023/03/17 03:20:15;;;;;;;;;;;;;;;-142.75;100.00;76995.50;5031589;28;19917;-65
2023/03/17 03:22:40;;;;;;;;;;;;;;;-142.75;100.00;76973.84;5031544;28;20281;-66
2023/03/17 03:25:07;;;;;;;;;;;;;;;-142.75;100.00;76964.00;5031619;28;19936;-67
2023/03/17 03:27:33;;;;;;;;;;;;;;;-142.75;100.00;76956.13;5031587;28;19996;-67
2023/03/17 03:29:58;;;;;;;;;;;;;;;-142.75;100.00;76940.38;5030159;28;20443;-67
2023/03/17 03:32:23;;;;;;;;;;;;;;;-142.75;100.00;76932.50;5031483;28;19947;-65
2023/03/17 03:34:49;;;;;;;;;;;;;;;-142.75;100.00;76936.44;5031565;28;19913;-67
2023/03/17 03:37:14;;;;;;;;;;;;;;;-142.75;100.00;76934.47;5030141;28;19921;-68
2023/03/17 03:39:39;;;;;;;;;;;;;;;-142.75;100.00;76920.69;5031496;28;19913;-67
2023/03/17 03:42:05;;;;;;;;;;;;;;;-142.75;100.00;76924.63;5030119;28;20430;-67
2023/03/17 03:44:31;;;;;;;;;;;;;;;-142.75;100.00;76924.63;5031365;28;20011;-67
2023/03/17 03:46:56;;;;;;;;;;;;;;;-142.75;100.00;76924.63;5034742;28;19913;-67
2023/03/17 03:49:21;;;;;;;;;;;;;;;-142.75;100.00;76914.78;5033614;28;19917;-66
2023/03/17 03:51:47;;;;;;;;;;;;;;;-142.75;100.00;76922.66;5034888;28;19919;-67
2023/03/17 03:54:12;;;;;;;;;;;;;;;-142.75;100.00;76912.81;5034827;28;19948;-67
2023/03/17 03:56:37;;;;;;;;;;;;;;;-142.75;100.00;76918.72;5033571;28;20403;-67
2023/03/17 03:59:02;;;;;;;;;;;;;;;-142.75;100.00;76912.81;5033506;28;19920;-67
2023/03/17 04:01:28;;;;;;;;;;;;;;;-142.75;100.00;76895.09;5033414;28;20269;-67
2023/03/17 04:03:53;;;;;;;;;;;;;;;-142.75;100.00;76895.09;5033349;28;20003;-67
2023/03/17 04:06:18;;;;;;;;;;;;;;;-142.75;100.00;76893.13;5034681;28;19917;-67
2023/03/17 04:08:43;;;;;;;;;;;;;;;-142.75;100.00;76885.25;5034576;28;19917;-66
2023/03/17 04:11:09;;;;;;;;;;;;;;;-142.75;100.00;76885.25;5034505;28;19980;-67
2023/03/17 04:13:34;;;;;;;;;;;;;;;-142.75;100.00;76885.25;5034451;28;20384;-67
2023/03/17 04:16:00;;;;;;;;;;;;;;;-142.75;100.00;76879.34;5034410;28;20492;-66
2023/03/17 04:18:25;;;;;;;;;;;;;;;-142.75;100.00;76875.41;5034437;28;20300;-67
2023/03/17 04:20:50;;;;;;;;;;;;;;;-142.75;100.00;76871.47;5032993;28;19913;-68
2023/03/17 04:23:16;;;;;;;;;;;;;;;-142.75;100.00;76873.44;5034269;28;19920;-66
2023/03/17 04:25:41;;;;;;;;;;;;;;;-142.75;100.00;76867.53;5034260;28;19913;-67
2023/03/17 04:28:07;;;;;;;;;;;;;;;-142.75;100.00;76853.75;5034296;28;19913;-67
2023/03/17 04:30:33;;;;;;;;;;;;;;;-142.75;100.00;76867.53;5034219;28;19921;-67
2023/03/17 04:32:58;;;;;;;;;;;;;;;-142.75;100.00;76869.50;5034113;28;19913;-65
2023/03/17 04:35:23;;;;;;;;;;;;;;;-142.75;100.00;76871.47;5034107;28;20296;-68
2023/03/17 04:37:49;;;;;;;;;;;;;;;-142.75;100.00;76865.56;5032780;28;19917;-63
2023/03/17 04:40:15;;;;;;;;;;;;;;;-142.75;100.00;76869.50;5034021;28;19943;-67
2023/03/17 04:42:40;;;;;;;;;;;;;;;-142.75;100.00;76863.59;5033858;28;19913;-66
2023/03/17 04:45:08;;;;;;;;;;;;;;;-142.75;100.00;76859.66;5032744;28;19923;-66
2023/03/17 04:47:33;;;;;;;;;;;;;;;-142.75;100.00;76857.69;5033873;28;19929;-66
2023/03/17 04:50:00;;;;;;;;;;;;;;;-142.75;100.00;76865.56;5033704;28;19959;-67
2023/03/17 04:52:25;;;;;;;;;;;;;;;-142.75;100.00;76857.69;5033757;28;19920;-67
2023/03/17 04:54:50;;;;;;;;;;;;;;;-142.75;100.00;76857.69;5033791;28;20343;-66
2023/03/17 04:57:15;;;;;;;;;;;;;;;-142.75;100.00;76861.63;5032203;28;20369;-66
2023/03/17 04:59:40;;;;;;;;;;;;;;;-142.75;100.00;76873.44;5033635;28;19913;-68
2023/03/17 05:02:06;;;;;;;;;;;;;;;-142.75;100.00;76851.78;5033513;28;20016;-66
2023/03/17 05:04:31;;;;;;;;;;;;;;;-142.75;100.00;76838.00;5033747;28;19914;-64
2023/03/17 05:06:57;;;;;;;;;;;;;;;-142.75;100.00;76853.75;5033582;28;19913;-66
2023/03/17 05:09:23;;;;;;;;;;;;;;;-142.75;100.00;76841.94;5033444;28;19935;-67
2023/03/17 05:11:48;;;;;;;;;;;;;;;-142.75;100.00;76834.06;5033723;28;19917;-67
2023/03/17 05:14:13;;;;;;;;;;;;;;;-142.75;100.00;76816.34;5033250;28;19913;-66
2023/03/17 05:16:38;;;;;;;;;;;;;;;-142.75;100.00;76836.03;5033238;28;19917;-67
2023/03/17 05:19:03;;;;;;;;;;;;;;;-142.75;100.00;76847.84;5031939;28;19917;-67
2023/03/17 05:21:29;;;;;;;;;;;;;;;-142.75;100.00;76861.63;5031888;28;19917;-67
2023/03/17 05:23:54;;;;;;;;;;;;;;;-142.75;100.00;76875.41;5033147;28;19923;-67
2023/03/17 05:26:20;;;;;;;;;;;;;;;-142.75;100.00;76893.13;5033207;28;19940;-67
2023/03/17 05:28:45;;;;;;;;;;;;;;;-142.75;100.00;76924.63;5031821;28;20447;-67
2023/03/17 05:31:10;;;;;;;;;;;;;;;-142.75;100.00;76942.34;5031765;28;19913;-66
2023/03/17 05:33:36;;;;;;;;;;;;;;;-142.75;100.00;76944.31;5032923;28;19913;-67
2023/03/17 05:36:02;;;;;;;;;;;;;;;-142.75;100.00;76926.59;5032985;28;19917;-68
2023/03/17 05:38:28;;;;;;;;;;;;;;;-142.75;100.00;76924.63;5031643;28;19920;-67
2023/03/17 05:40:53;;;;;;;;;;;;;;;-142.75;100.00;76918.72;5032806;28;19915;-66
2023/03/17 05:43:19;;;;;;;;;;;;;;;-142.75;100.00;76910.84;5031452;28;19920;-67
2023/03/17 05:45:46;;;;;;;;;;;;;;;-142.75;100.00;76901.00;5031635;28;19921;-67
2023/03/17 05:48:12;;;;;;;;;;;;;;;-142.75;100.00;76901.00;5032610;28;19917;-67
2023/03/17 05:50:37;;;;;;;;;;;;;;;-142.75;100.00;76908.88;5032688;28;19913;-67
2023/03/17 05:53:02;;;;;;;;;;;;;;;-142.75;100.00;76910.84;5032591;28;19949;-67
2023/03/17 05:55:28;;;;;;;;;;;;;;;-142.75;100.00;76910.84;5032601;28;20392;-67
2023/03/17 05:57:53;;;;;;;;;;;;;;;-142.75;100.00;76908.88;5032675;28;19963;-67
2023/03/17 06:00:20;;;;;;;;;;;;;;;-142.75;100.00;76910.84;5032548;28;19913;-68
2023/03/17 06:02:45;;;;;;;;;;;;;;;-142.75;100.00;76906.91;5032455;28;19960;-66
2023/03/17 06:05:11;;;;;;;;;;;;;;;-142.75;100.00;76912.81;5031287;28;19948;-67
2023/03/17 06:07:36;;;;;;;;;;;;;;;-142.75;100.00;76922.66;5032076;28;19913;-66
2023/03/17 06:10:02;;;;;;;;;;;;;;;-142.75;100.00;76914.78;5032204;28;19920;-67
2023/03/17 06:12:27;;;;;;;;;;;;;;;-142.75;100.00;76944.31;5031078;28;19959;-67
2023/03/17 06:14:52;;;;;;;;;;;;;;;-142.75;100.00;76942.34;5032490;28;20273;-67
2023/03/17 06:17:18;;;;;;;;;;;;;;;-142.75;100.00;76948.25;5032156;28;19944;-67
2023/03/17 06:19:43;;;;;;;;;;;;;;;-142.75;100.00;76942.34;5030968;28;19917;-67
2023/03/17 06:22:09;;;;;;;;;;;;;;;-142.75;100.00;76952.19;5034997;28;19956;-69
2023/03/17 06:24:34;;;;;;;;;;;;;;;-142.75;100.00;76954.16;5067596;28;20361;-67
2023/03/17 06:27:00;;;;;;;;;;;;;;;-142.75;100.00;76962.03;5052121;28;19919;-68
2023/03/17 06:29:25;;;;;;;;;;;;;;;-142.75;100.00;76979.75;5052129;28;19919;-67
2023/03/17 06:31:51;;;;;;;;;;;;;;;-142.75;100.00;76967.94;5051999;28;19919;-66
2023/03/17 06:34:17;;;;;;;;;;;;;;;-142.75;100.00;76962.03;5067274;28;19966;-67
2023/03/17 06:36:44;;;;;;;;;;;;;;;-142.75;100.00;76960.06;5051993;28;19916;-68
2023/03/17 06:39:09;;;;;;;;;;;;;;;-142.75;100.00;76956.13;5067254;28;19913;-67
2023/03/17 06:41:35;;;;;;;;;;;;;;;-142.75;100.00;76946.28;5051911;28;19913;-67
2023/03/17 06:44:00;;;;;;;;;;;;;;;-142.75;100.00;76940.38;5051893;28;19931;-67
2023/03/17 06:46:26;;;;;;;;;;;;;;;-142.75;100.00;76932.50;5051980;28;20030;-67
2023/03/17 06:48:51;;;;;;;;;;;;;;;-142.75;100.00;76920.69;5067146;28;19924;-67
2023/03/17 06:51:16;;;;;;;;;;;;;;;-142.75;100.00;76904.94;5033892;28;19970;-67
2023/03/17 06:53:42;;;;;;;;;;;;;;;-142.75;100.00;76902.97;5031781;28;19913;-67
2023/03/17 06:56:08;;;;;;;;;;;;;;;-142.75;100.00;76908.88;5031873;28;20350;-66
2023/03/17 06:58:33;;;;;;;;;;;;;;;-142.75;100.00;76902.97;5031838;28;20284;-67
2023/03/17 07:00:59;;;;;;;;;;;;;;;-142.75;100.00;76906.91;5038945;28;19969;-67
2023/03/17 07:03:24;;;;;;;;;;;;;;;-142.75;100.00;76897.06;5046753;28;20516;-68
2023/03/17 07:05:50;;;;;;;;;;;;;;;-142.75;100.00;76897.06;5030568;28;20055;-67
2023/03/17 07:08:15;;;;;;;;;;;;;;;-142.75;100.00;76901.00;5039402;28;20364;-67
2023/03/17 07:10:42;;;;;;;;;;;;;;;-142.75;100.00;76899.03;5042255;28;19966;-66
2023/03/17 07:13:07;;;;;;;;;;;;;;;-142.75;100.00;76889.19;5040713;28;19916;-67
2023/03/17 07:15:34;;;;;;;;;;;;;;;-142.75;100.00;76893.13;5038441;28;20341;-69
2023/03/17 07:17:59;;;;;;;;;;;;;;;-142.75;100.00;76881.31;5031562;28;19917;-65
2023/03/17 07:20:25;;;;;;;;;;;;;;;-142.75;100.00;76871.47;5036363;28;19968;-69
2023/03/17 07:22:50;;;;;;;;;;;;;;;-142.75;100.00;76865.56;5043845;28;19916;-67
2023/03/17 07:25:16;;;;;;;;;;;;;;;-142.75;100.00;76869.50;5044286;28;19917;-67
2023/03/17 07:27:41;;;;;;;;;;;;;;;-142.75;100.00;76857.69;5042985;28;19924;-67
2023/03/17 07:30:07;;;;;;;;;;;;;;;-142.75;100.00;76838.00;5046092;28;19922;-68
2023/03/17 07:32:32;;;;;;;;;;;;;;;-142.75;100.00;76818.31;5047722;28;20281;-68
2023/03/17 07:34:58;;;;;;;;;;;;;;;-142.75;100.00;76794.69;5052425;28;19913;-66
2023/03/17 07:37:23;;;;;;;;;;;;;;;-142.75;100.00;76777.00;5052156;28;19916;-67
2023/03/17 07:39:49;;;;;;;;;;;;;;;-142.75;100.00;76751.41;5042501;28;20284;-67
2023/03/17 07:42:15;;;;;;;;;;;;;;;-142.75;100.00;76719.91;5055004;28;20390;-69
2023/03/17 07:44:41;;;;;;;;;;;;;;;-142.75;100.00;76698.25;5053912;28;19909;-67
2023/03/17 07:47:07;;;;;;;;;;;;;;;-142.75;100.00;76676.59;5041799;28;19919;-68
2023/03/17 07:49:32;;;;;;;;;;;;;;;-142.75;100.00;76643.13;5050224;28;19913;-68
2023/03/17 07:51:58;;;;;;;;;;;;;;;-142.75;98.48;76641.16;5037387;28;19909;-67
2023/03/17 07:54:24;;;;;;;;;;;;;;;-142.75;96.91;76629.34;5047410;28;19909;-68
2023/03/17 07:56:49;;;;;;;;;;;;;;;-142.75;96.17;76603.75;5040036;28;19996;-68
2023/03/17 07:59:14;;;;;;;;;;;;;;;-142.75;93.88;76603.75;5044028;28;20004;-67
2023/03/17 08:01:40;;;;;;;;;;;;;;;-142.75;92.30;76556.50;5034370;28;20344;-67
2023/03/17 08:04:06;;;;;;;;;;;;;;;-142.75;90.98;76566.34;5042456;28;19959;-69
2023/03/17 08:06:31;;;;;;;;;;;;;;;-142.75;90.32;76523.06;5038288;28;19917;-70
2023/03/17 08:08:56;;;;;;;;;;;;;;;-142.75;88.55;76489.59;5034062;28;19965;-68
2023/03/17 08:11:22;;;;;;;;;;;;;;;-142.75;88.29;76483.69;5034127;28;19925;-68
2023/03/17 08:13:48;;;;;;;;;;;;;;;-142.75;87.85;76471.88;5042157;28;19920;-67
2023/03/17 08:16:14;;;;;;;;;;;;;;;-142.75;85.83;76422.66;5054590;28;19917;-68
2023/03/17 08:18:39;;;;;;;;;;;;;;;-142.75;84.62;76428.56;5053895;28;19967;-67
2023/03/17 08:21:05;;;;;;;;;;;;;;;-142.75;83.90;76393.13;5040939;28;19925;-66
2023/03/17 08:23:31;;;;;;;;;;;;;;;-142.75;84.11;76426.59;5033899;28;20016;-67
2023/03/17 08:26:00;;;;;;;;;;;;;;;-142.75;83.66;76395.09;5034839;28;19916;-67
2023/03/17 08:28:26;;;;;;;;;;;;;;;-142.75;84.01;76391.16;5036997;28;20300;-66
2023/03/17 08:30:52;;;;;;;;;;;;;;;-142.75;83.96;76373.44;5041815;28;20007;-67
2023/03/17 08:33:17;;;;;;;;;;;;;;;-142.75;84.06;76375.41;5045637;28;20024;-68
2023/03/17 08:35:42;;;;;;;;;;;;;;;-142.75;84.50;76369.50;5042974;28;20424;-68
2023/03/17 08:38:08;;;;;;;;;;;;;;;-142.75;84.47;76381.31;5033914;28;19975;-67
2023/03/17 08:40:33;;;;;;;;;;;;;;;-142.75;84.44;76381.31;5037894;28;19947;-68
2023/03/17 08:42:59;;;;;;;;;;;;;;;-142.75;85.29;76375.41;5045923;28;20059;-68
2023/03/17 08:45:24;;;;;;;;;;;;;;;-142.75;85.10;76345.91;5053957;28;19917;-68
2023/03/17 08:47:50;;;;;;;;;;;;;;;-142.75;84.70;76363.59;5053866;28;19956;-67
2023/03/17 08:50:17;;;;;;;;;;;;;;;-142.75;84.84;76349.81;5053630;28;20426;-67
2023/03/17 08:52:42;;;;;;;;;;;;;;;-142.75;84.27;76341.97;5053658;28;19913;-67
2023/03/17 08:55:08;;;;;;;;;;;;;;;-142.75;85.15;76381.31;5050542;28;20404;-67
2023/03/17 08:57:33;;;;;;;;;;;;;;;-142.75;85.07;76422.66;5047462;28;19970;-67
2023/03/17 08:59:59;;;;;;;;;;;;;;;-142.75;85.82;76399.03;5051399;28;20292;-67
2023/03/17 09:02:24;;;;;;;;;;;;;;;-142.75;85.27;76412.81;5053454;28;20410;-69
2023/03/17 09:04:49;;;;;;;;;;;;;;;-142.75;85.99;76393.13;5053543;28;20054;-67
2023/03/17 09:07:15;;;;;;;;;;;;;;;-142.75;85.67;76365.56;5053174;28;20368;-68
2023/03/17 09:09:41;;;;;;;;;;;;;;;-142.75;85.71;76341.97;5053491;28;19913;-69
2023/03/17 09:12:06;;;;;;;;;;;;;;;-142.75;85.08;76312.44;5049236;28;19917;-67
2023/03/17 09:14:33;;;;;;;;;;;;;;;-142.75;83.78;76338.03;5043890;28;19928;-66
2023/03/17 09:16:58;;;;;;;;;;;;;;;-142.75;84.18;76347.84;5042042;28;19925;-67
2023/03/17 09:19:23;;;;;;;;;;;;;;;-142.75;84.78;76357.69;5046468;28;19917;-67
2023/03/17 09:21:49;;;;;;;;;;;;;;;-142.75;83.66;76290.78;5050314;28;19913;-67
2023/03/17 09:24:14;;;;;;;;;;;;;;;-142.75;83.87;76306.53;5053088;28;19917;-67
2023/03/17 09:26:40;;;;;;;;;;;;;;;-142.75;84.24;76320.31;5044016;28;20019;-67
2023/03/17 09:29:06;;;;;;;;;;;;;;;-142.75;84.75;76379.34;5040175;28;19964;-67
2023/03/17 09:31:31;;;;;;;;;;;;;;;-142.75;85.51;76365.56;5038466;28;19913;-66
2023/03/17 09:33:57;;;;;;;;;;;;;;;-142.75;86.81;76385.25;5031612;28;19996;-67
2023/03/17 09:36:23;;;;;;;;;;;;;;;-142.75;87.78;76393.13;5035627;28;19929;-66
2023/03/17 09:38:48;;;;;;;;;;;;;;;-142.75;85.83;76375.41;5045759;28;20107;-65
2023/03/17 09:41:15;;;;;;;;;;;;;;;-142.75;85.96;76377.38;5050577;28;20364;-67
2023/03/17 09:43:46;;;;;;;;;;;;;;;-142.75;86.78;76365.56;5043479;28;19962;-68
2023/03/17 09:46:17;;;;;;;;;;;;;;;-142.75;85.86;76393.13;5051846;28;20331;-67
2023/03/17 09:48:42;;;;;;;;;;;;;;;-142.75;86.41;76401.00;5052542;28;19987;-67
2023/03/17 09:51:10;;;;;;;;;;;;;;;-142.75;86.92;76420.69;5051405;28;19913;-67
2023/03/17 09:53:36;;;;;;;;;;;;;;;-142.75;89.00;76456.13;5052657;28;19913;-68
2023/03/17 09:56:05;;;;;;;;;;;;;;;-142.75;89.53;76424.63;5051362;28;19917;-68
2023/03/17 09:58:32;;;;;;;;;;;;;;;-142.75;89.67;76387.22;5052504;28;19913;-68
2023/03/17 10:00:58;;;;;;;;;;;;;;;-142.75;87.52;76300.63;5052515;28;19955;-67
2023/03/17 10:03:24;;;;;;;;;;;;;;;-142.75;84.75;76204.16;5051133;28;19963;-68
2023/03/17 10:05:49;;;;;;;;;;;;;;;-142.75;81.75;76192.38;5051306;28;19913;-66
2023/03/17 10:08:24;;;;;;;;;;;;;;;-142.75;83.05;76168.75;5052427;28;19912;-68
2023/03/17 10:11:18;;;;;;;;;;;;;;;-142.75;81.65;76208.09;5052396;28;19913;-67
2023/03/17 10:13:54;;;;;;;;;;;;;;;-142.75;84.22;76261.25;5038670;28;19919;-68
2023/03/17 10:16:21;;;;;;;;;;;;;;;-142.75;85.57;76265.19;5051029;28;19916;-68
2023/03/17 10:18:59;;;;;;;;;;;;;;;-142.75;87.25;76259.28;5052238;28;20273;-68
2023/03/17 10:21:27;;;;;;;;;;;;;;;-142.75;86.36;76245.50;5050793;28;19932;-68
2023/03/17 10:23:54;;;;;;;;;;;;;;;-142.75;87.60;76223.84;5050853;28;19955;-68
2023/03/17 10:26:28;;;;;;;;;;;;;;;-142.75;85.57;76255.34;5050947;28;19920;-68
2023/03/17 10:28:54;;;;;;;;;;;;;;;-142.75;86.65;76267.16;5052071;28;19935;-68
2023/03/17 10:31:27;;;;;;;;;;;;;;;-142.75;87.51;76263.22;5050801;28;19912;-68
2023/03/17 10:33:53;;;;;;;;;;;;;;;-142.75;89.14;76261.25;5052047;28;20300;-68
2023/03/17 10:36:31;;;;;;;;;;;;;;;-142.75;88.37;76251.41;5050797;28;19922;-68
2023/03/17 10:38:57;;;;;;;;;;;;;;;-142.75;88.72;76245.50;5051953;28;19946;-68
2023/03/17 10:41:24;;;;;;;;;;;;;;;-142.75;89.88;76265.19;5051953;28;19920;-68
2023/03/17 10:43:50;;;;;;;;;;;;;;;-142.75;87.10;76286.84;5050515;28;19913;-67
2023/03/17 10:46:17;;;;;;;;;;;;;;;-142.75;90.06;76288.81;5052025;28;19963;-68
2023/03/17 10:48:49;;;;;;;;;;;;;;;-142.75;89.86;76304.56;5051795;28;19923;-67
2023/03/17 10:51:19;;;;;;;;;;;;;;;-142.75;89.32;76330.16;5051794;28;19913;-68
2023/03/17 10:53:44;;;;;;;;;;;;;;;-142.75;92.88;76310.47;5050604;28;20412;-68
2023/03/17 10:56:19;;;;;;;;;;;;;;;-142.75;90.46;76326.22;5056051;28;19917;-67
2023/03/17 10:58:46;;;;;;;;;;;;;;;-142.75;92.07;76387.22;5056008;28;19913;-68
2023/03/17 11:01:19;;;;;;;;;;;;;;;-142.75;93.79;76414.78;5056020;28;20292;-67
2023/03/17 11:03:44;;;;;;;;;;;;;;;-142.75;93.69;76391.16;5053777;28;19917;-66
2023/03/17 11:06:11;;;;;;;;;;;;;;;-142.75;99.12;76318.34;5050342;28;19923;-67
2023/03/17 11:08:41;;;;;;;;;;;;;;;-142.75;98.00;76273.06;5052301;28;19956;-67
2023/03/17 11:11:20;;;;;;;;;;;;;;;-142.75;93.19;76245.50;5046174;28;19960;-67
2023/03/17 11:13:46;;;;;;;;;;;;;;;-142.75;93.63;76198.28;5047962;28;19919;-68
2023/03/17 11:16:20;;;;;;;;;;;;;;;-142.75;92.83;76145.13;5043707;28;20023;-67
2023/03/17 11:18:47;;;;;;;;;;;;;;;-142.75;90.99;76117.56;5044424;28;20363;-67
2023/03/17 11:21:35;;;;;;;;;;;;;;;-142.75;87.13;76113.63;5044841;28;19958;-67
2023/03/17 11:24:11;;;;;;;;;;;;;;;-142.75;87.28;76149.06;5032557;28;19959;-66
2023/03/17 11:26:40;;;;;;;;;;;;;;;-142.75;88.23;76190.41;5042796;28;19912;-67
2023/03/17 11:29:19;;;;;;;;;;;;;;;-142.75;89.26;76170.72;5044074;28;19970;-67
2023/03/17 11:31:44;;;;;;;;;;;;;;;-142.75;87.94;76149.06;5043086;28;20597;-67
2023/03/17 11:34:35;;;;;;;;;;;;;;;-142.75;87.96;76172.69;5037958;28;19913;-66
2023/03/17 11:37:20;;;;;;;;;;;;;;;-142.75;88.18;76210.06;5029653;28;19959;-67
2023/03/17 11:39:48;;;;;;;;;;;;;;;-142.75;89.81;76186.47;5035801;28;19924;-67
2023/03/17 11:42:20;;;;;;;;;;;;;;;-142.75;89.56;76147.09;5035207;28;19913;-67
2023/03/17 11:44:55;;;;;;;;;;;;;;;-142.75;87.53;76111.66;5035268;28;19917;-67
2023/03/17 11:47:40;;;;;;;;;;;;;;;-142.75;86.64;76042.78;5041028;28;19920;-67
2023/03/17 11:50:25;;;;;;;;;;;;;;;-142.75;84.42;76007.34;5045791;28;20003;-67
2023/03/17 11:53:13;;;;;;;;;;;;;;;-142.75;84.49;76013.25;5050921;28;19965;-67
2023/03/17 11:55:46;;;;;;;;;;;;;;;-142.75;84.05;75991.59;5007541;28;20403;-67
2023/03/17 11:58:30;;;;;;;;;;;;;;;-142.75;84.27;76032.94;5054856;28;19908;-67
2023/03/17 12:00:57;;;;;;;;;;;;;;;-142.75;85.29;76058.53;5054806;28;19912;-67
2023/03/17 12:03:38;;;;;;;;;;;;;;;-142.75;85.78;76042.78;5054625;28;19932;-68
2023/03/17 12:06:10;;;;;;;;;;;;;;;-142.75;85.83;76032.94;5053882;28;19913;-67
2023/03/17 12:08:44;;;;;;;;;;;;;;;-142.75;85.56;76030.97;5053257;28;20356;-67
2023/03/17 12:11:11;;;;;;;;;;;;;;;-142.75;85.95;76040.81;5054194;28;19912;-67
2023/03/17 12:13:48;;;;;;;;;;;;;;;-142.75;87.81;76062.47;5054520;28;20399;-67
2023/03/17 12:16:32;;;;;;;;;;;;;;;-142.75;86.59;76054.59;5042948;28;19995;-67
2023/03/17 12:19:00;;;;;;;;;;;;;;;-142.75;86.31;76027.03;5043768;28;20199;-67
2023/03/17 12:21:35;;;;;;;;;;;;;;;-142.75;85.82;76005.38;5051482;28;19916;-67